Flight Track Log - Related Links

Times and Time Zones

All times are in EDT time to prevent confusion due to time zone crossing. See the ANA532 flight status page for this flight to view local times or setup timezone preferences in your user account.

Time Position Orientation Groundspeed Altitude Reporting Facility
EDT Latitude Longitude Course Direction KTS MPH feet Rate Location/Type
Sat 06:50:00 PM 34.3021 134.3562 73° East  Level Estimated
Sat 06:51:00 PM 34.3312 134.4699 73° East  Level Estimated
Sat 06:52:00 PM 34.3602 134.5837 73° East  Level Estimated
Sat 06:53:00 PM 34.3890 134.6975 73° East  Level Estimated
Sat 06:54:00 PM 34.4178 134.8115 73° East  Level Estimated
Sat 06:55:00 PM 34.4465 134.9255 73° East  Level Estimated
Sat 06:56:00 PM 34.4751 135.0396 73° East  Level Estimated
Sat 06:57:00 PM 34.5035 135.1537 73° East  Level Estimated
Sat 06:58:00 PM 34.5319 135.2680 73° East  Level Estimated
Sat 06:59:00 PM 34.5601 135.3823 73° East  Level Estimated
Sat 07:00:00 PM 34.5883 135.4967 73° East  Level Estimated
Sat 07:01:00 PM 34.6163 135.6112 73° East  Level Estimated
Sat 07:02:00 PM 34.6442 135.7258 73° East  Level Estimated
Sat 07:03:00 PM 34.6720 135.8404 74° East  Level Estimated
Sat 07:04:00 PM 34.6997 135.9551 74° East  Level Estimated
Sat 07:05:00 PM 34.7273 136.0699 74° East  Level Estimated
Sat 07:06:00 PM 34.7548 136.1847 74° East  Level Estimated
Sat 07:07:00 PM 34.7822 136.2997 74° East  Level Estimated
Sat 07:08:00 PM 34.8095 136.4147 74° East  Level Estimated
Sat 07:09:00 PM 34.8367 136.5298 74° East  Level Estimated
Sat 07:10:00 PM 34.8638 136.6450 74° East  Level Estimated
Sat 07:11:00 PM 34.8907 136.7602 74° East  Level Estimated
Sat 07:12:00 PM 34.9176 136.8755 74° East  Level Estimated
Sat 07:13:00 PM 34.9443 136.9909 74° East  Level Estimated
Sat 07:14:00 PM 34.9709 137.1064 74° East  Level Estimated
Sat 07:15:00 PM 34.9975 137.2220 74° East  Level Estimated
Sat 07:16:00 PM 35.0239 137.3376 74° East  Level Estimated
Sat 07:17:00 PM 35.0502 137.4533 74° East  Level Estimated
Sat 07:18:00 PM 35.0764 137.5690 75° East  Level Estimated
Sat 07:19:00 PM 35.1024 137.6849 75° East  Level Estimated
Sat 07:20:00 PM 35.1284 137.8008 75° East  Level Estimated
Sat 07:21:00 PM 35.1543 137.9168 75° East  Level Estimated
Sat 07:22:00 PM 35.1800 138.0329 75° East  Level Estimated
Sat 07:23:00 PM 35.2057 138.1490 75° East  Level Estimated
Sat 07:24:00 PM 35.2312 138.2652 75° East  Level Estimated
Sat 07:25:00 PM 35.2566 138.3815 75° East  Level Estimated
Sat 07:26:00 PM 35.2819 138.4979 75° East  Level Estimated
Sat 07:27:00 PM 35.3071 138.6143 75° East  Level Estimated
Sat 07:28:00 PM 35.3322 138.7308 75° East  Level Estimated
Sat 07:29:00 PM 35.3571 138.8474 75° East  Level Estimated
Sat 07:30:00 PM 35.3820 138.9640 75° East  Level Estimated
Sat 07:31:00 PM 35.4067 139.0807 75° East  Level Estimated
Sat 07:32:00 PM 35.4314 139.1975 75° East  Level Estimated
Sat 07:33:00 PM 35.4559 139.3144 76° East  Level Estimated
Sat 07:34:00 PM 35.4803 139.4313 76° East  Level Estimated
Sat 07:35:00 PM 35.5046 139.5483 76° East  Level Estimated
Sat 07:36:00 PM 35.5288 139.6654 76° East  Level Estimated
Sat 07:37:00 PM 35.5523 139.7797 76° East  Level Estimated
Sat 07:38:00 PM 35.5523 139.7797 122° Southeast  Level Estimated
Sat 07:39:00 PM 35.5523 139.7797 122° Southeast  Level Estimated
Sat 07:40:00 PM 35.5523 139.7797 122° Southeast  Level Estimated
Sat 07:41:00 PM 35.5523 139.7797 122° Southeast  Level Estimated
Sat 07:42:00 PM 35.5523 139.7797 122° Southeast  Level Estimated
Sat 07:43:00 PM 35.5523 139.7797 122° Southeast  Level Estimated
Sat 07:44:00 PM 35.5523 139.7797 122° Southeast  Level Estimated
Sat 07:45:00 PM 35.5523 139.7797 122° Southeast  Level Estimated
Sat 07:46:00 PM 35.5523 139.7797 122° Southeast  Level Estimated
Sat 07:47:00 PM 35.5523 139.7797 122° Southeast  Level Estimated
Sat 07:48:00 PM 35.5523 139.7797 122° Southeast  Level Estimated
Sat 07:49:00 PM 35.5523 139.7797 122° Southeast  Level Estimated
Sat 07:50:00 PM 35.5523 139.7797 122° Southeast  Level Estimated
Sat 07:51:00 PM 35.5523 139.7797 122° Southeast  Level Estimated
Sat 07:52:00 PM 35.5523 139.7797 122° Southeast  Level Estimated
Sat 07:53:00 PM 35.5523 139.7797 122° Southeast  Level Estimated

Login

Don't have an account? Register now (free) for customized features, flight alerts, and more!